Time;durP1;ratioP1;P1;durP2;ratioP2;P2;SDS_P1;SDS_P2;PMS_P1;PMS_P2;Temp;Humidity;BMP_temperature;BMP_pressure;BME280_temperature;BME280_humidity;BME280_pressure;Samples;Min_cycle;Max_cycle;Signal;HPM_P1;HPM_P2
2023/06/29 00:00:20;;;;;;;8.25;4.00;;;;;;;20.21;90.03;101350.16;5002931;28;20072;-76
2023/06/29 00:02:46;;;;;;;7.10;3.75;;;;;;;20.20;89.91;101340.63;5007089;28;20584;-76
2023/06/29 00:05:12;;;;;;;5.82;3.95;;;;;;;20.20;89.88;101345.09;5003479;28;20046;-76
2023/06/29 00:07:38;;;;;;;10.02;4.47;;;;;;;20.19;89.64;101343.47;5012383;28;20038;-75
2023/06/29 00:10:04;;;;;;;8.05;4.03;;;;;;;20.16;89.56;101339.44;4996157;28;20042;-76
2023/06/29 00:12:29;;;;;;;6.45;3.60;;;;;;;20.13;89.26;101341.66;5006667;28;20045;-76
2023/06/29 00:14:55;;;;;;;10.55;4.90;;;;;;;20.11;89.58;101338.44;4993131;28;20517;-76
2023/06/29 00:17:21;;;;;;;6.93;3.70;;;;;;;20.11;89.52;101341.06;5011950;28;20041;-75
2023/06/29 00:19:47;;;;;;;6.88;3.70;;;;;;;20.10;89.55;101347.31;5007514;28;20651;-76
2023/06/29 00:22:17;;;;;;;12.05;5.13;;;;;;;20.11;89.66;101344.50;5011163;28;20043;-76
2023/06/29 00:24:42;;;;;;;12.27;4.47;;;;;;;20.10;89.59;101342.88;5012715;28;20517;-76
2023/06/29 00:27:12;;;;;;;11.57;3.83;;;;;;;20.07;89.27;101335.41;5011424;28;20052;-75
2023/06/29 00:29:40;;;;;;;12.07;4.93;;;;;;;20.07;87.90;101339.84;5006323;28;20046;-76
2023/06/29 00:32:05;;;;;;;12.88;5.85;;;;;;;20.13;86.43;101336.41;4995758;28;20032;-76
2023/06/29 00:34:31;;;;;;;12.20;5.85;;;;;;;20.00;86.88;101337.22;4995440;28;20053;-76
2023/06/29 00:36:58;;;;;;;11.95;5.38;;;;;;;19.91;87.65;101320.03;5011441;28;20121;-75
2023/06/29 00:39:24;;;;;;;15.75;5.07;;;;;;;19.83;88.88;101318.44;4994910;28;20136;-75
2023/06/29 00:41:55;;;;;;;13.40;4.22;;;;;;;19.89;88.22;101324.69;4999202;28;20033;-75
2023/06/29 00:44:24;;;;;;;17.98;5.05;;;;;;;19.87;87.60;101324.91;5022712;28;20130;-75
2023/06/29 00:46:53;;;;;;;15.05;4.25;;;;;;;19.78;87.97;101326.16;4990873;28;20033;-76
2023/06/29 00:49:20;;;;;;;11.57;4.20;;;;;;;19.77;87.89;101330.56;5005709;28;20514;-76
2023/06/29 00:51:50;;;;;;;12.43;4.88;;;;;;;19.79;88.23;101325.13;5008580;28;20026;-75
2023/06/29 00:54:22;;;;;;;9.93;4.85;;;;;;;19.81;88.54;101325.72;4989124;28;20129;-75
2023/06/29 00:56:48;;;;;;;11.70;5.07;;;;;;;19.82;88.28;101325.53;5023533;28;20095;-75
2023/06/29 00:59:14;;;;;;;11.73;5.45;;;;;;;19.85;88.48;101319.03;5007603;28;20404;-76
2023/06/29 01:01:41;;;;;;;13.57;5.47;;;;;;;19.86;88.14;101319.84;5008173;28;20064;-75
2023/06/29 01:04:08;;;;;;;11.98;4.40;;;;;;;19.84;88.14;101306.91;4991767;28;20229;-75
2023/06/29 01:06:44;;;;;;;15.32;5.10;;;;;;;19.86;87.69;101319.84;4989462;28;20037;-76
2023/06/29 01:09:12;;;;;;;10.27;4.68;;;;;;;19.86;87.60;101315.41;5006910;28;20039;-76
2023/06/29 01:11:38;;;;;;;12.45;4.90;;;;;;;19.86;87.30;101314.59;4992112;28;20030;-74
2023/06/29 01:14:06;;;;;;;13.20;5.00;;;;;;;19.86;87.39;101306.69;4992903;28;20045;-75
2023/06/29 01:16:34;;;;;;;16.95;6.03;;;;;;;19.84;85.98;101310.34;5007139;28;20062;-75
2023/06/29 01:19:02;;;;;;;13.93;5.05;;;;;;;19.78;86.11;101310.34;5009228;28;20120;-75
2023/06/29 01:21:30;;;;;;;12.98;4.75;;;;;;;19.73;86.14;101318.84;5007992;28;20038;-74
2023/06/29 01:23:58;;;;;;;12.18;4.90;;;;;;;19.73;85.93;101312.78;5004588;28;20072;-76
2023/06/29 01:26:24;;;;;;;14.93;5.53;;;;;;;19.76;86.11;101312.34;4991377;28;20163;-75
2023/06/29 01:28:50;;;;;;;16.60;6.30;;;;;;;19.71;85.69;101310.31;5010619;28;20037;-76
2023/06/29 01:31:16;;;;;;;13.43;4.45;;;;;;;19.66;86.00;101310.13;5010233;28;20073;-76
2023/06/29 01:33:42;;;;;;;9.93;4.65;;;;;;;19.66;85.62;101307.50;5007973;28;20153;-76
2023/06/29 01:36:28;;;;;;;9.25;3.90;;;;;;;19.67;86.14;101308.31;5008261;28;20061;-76
2023/06/29 01:39:02;;;;;;;10.02;4.50;;;;;;;19.70;86.89;101310.53;5007918;28;20042;-75
2023/06/29 01:41:32;;;;;;;11.52;4.60;;;;;;;19.68;87.62;101313.34;5004555;28;20124;-75
2023/06/29 01:44:02;;;;;;;11.02;4.53;;;;;;;19.68;88.27;101308.09;5017104;28;20052;-76
2023/06/29 01:46:28;;;;;;;11.40;4.32;;;;;;;19.68;88.39;101299.41;5012432;28;20117;-77
2023/06/29 01:48:54;;;;;;;11.05;4.38;;;;;;;19.67;88.53;101297.78;5007536;28;20767;-76
2023/06/29 01:51:20;;;;;;;15.80;5.50;;;;;;;19.64;88.35;101297.16;5012641;28;20038;-76
2023/06/29 01:53:45;;;;;;;16.33;4.95;;;;;;;19.59;88.85;101297.00;5005027;28;20129;-75
2023/06/29 01:56:11;;;;;;;19.05;5.68;;;;;;;19.56;88.44;101292.13;5010001;28;20120;-76
2023/06/29 01:58:36;;;;;;;17.40;5.00;;;;;;;19.54;87.98;101290.72;5001278;28;20053;-75
2023/06/29 02:01:02;;;;;;;11.57;4.43;;;;;;;19.53;88.08;101281.19;5005036;28;20025;-76
2023/06/29 02:03:27;;;;;;;11.35;3.97;;;;;;;19.53;87.88;101282.00;5003800;28;20503;-75
2023/06/29 02:05:53;;;;;;;12.00;4.38;;;;;;;19.53;87.97;101287.25;5008033;28;20033;-76
2023/06/29 02:08:18;;;;;;;12.85;5.05;;;;;;;19.53;88.09;101275.94;5007663;28;20041;-75
2023/06/29 02:10:44;;;;;;;8.60;5.35;;;;;;;19.55;88.21;101284.44;5022968;28;20041;-76
2023/06/29 02:13:12;;;;;;;14.07;5.22;;;;;;;19.55;88.27;101285.25;5005025;28;20026;-76
2023/06/29 02:15:38;;;;;;;10.23;4.32;;;;;;;19.55;88.56;101285.25;5003645;28;20064;-76
2023/06/29 02:18:05;;;;;;;15.25;4.88;;;;;;;19.54;88.78;101281.00;5008425;28;20021;-76
2023/06/29 02:20:30;;;;;;;13.60;4.57;;;;;;;19.53;89.39;101283.81;5006021;28;20056;-76
2023/06/29 02:22:55;;;;;;;12.48;4.63;;;;;;;19.49;90.02;101282.63;5009311;28;20049;-76
2023/06/29 02:25:21;;;;;;;7.53;4.88;;;;;;;19.44;90.55;101270.91;5004157;28;20045;-76
2023/06/29 02:27:47;;;;;;;9.70;4.88;;;;;;;19.43;91.20;101279.00;5005980;28;20022;-76
2023/06/29 02:30:12;;;;;;;8.50;4.80;;;;;;;19.43;90.94;101274.53;5024666;28;20431;-76
2023/06/29 02:32:38;;;;;;;9.07;4.47;;;;;;;19.43;91.03;101269.28;5004028;28;20411;-75
2023/06/29 02:35:04;;;;;;;9.77;4.20;;;;;;;19.44;90.70;101273.53;5004544;28;20033;-75
2023/06/29 02:37:30;;;;;;;11.18;4.60;;;;;;;19.45;90.74;101269.06;5026796;28;20099;-76
2023/06/29 02:39:56;;;;;;;8.85;4.55;;;;;;;19.46;90.56;101268.06;4993626;28;20501;-76
2023/06/29 02:42:22;;;;;;;10.05;4.88;;;;;;;19.45;90.62;101271.69;5007275;28;20060;-76
2023/06/29 02:44:47;;;;;;;11.75;5.25;;;;;;;19.44;91.30;101270.09;5008869;28;20394;-76
2023/06/29 02:47:13;;;;;;;6.70;4.35;;;;;;;19.41;91.98;101262.59;5004889;28;20033;-76
2023/06/29 02:49:39;;;;;;;12.35;5.00;;;;;;;19.36;92.72;101257.94;5004261;28;20164;-76
2023/06/29 02:52:05;;;;;;;9.75;4.82;;;;;;;19.31;93.32;101256.94;4993269;28;20029;-76
2023/06/29 02:54:30;;;;;;;12.05;4.63;;;;;;;19.24;93.00;101257.75;4989533;28;20077;-76
2023/06/29 02:56:56;;;;;;;10.48;4.78;;;;;;;19.19;92.85;101254.94;4990838;28;20094;-74
2023/06/29 02:59:22;;;;;;;10.90;4.72;;;;;;;19.18;92.78;101250.69;5002476;28;20607;-75
2023/06/29 03:01:47;;;;;;;6.20;3.97;;;;;;;19.19;92.61;101260.19;5000051;28;20041;-76
2023/06/29 03:04:13;;;;;;;11.23;4.50;;;;;;;19.20;92.41;101256.53;4987970;28;20037;-75
2023/06/29 03:06:38;;;;;;;11.98;4.85;;;;;;;19.21;92.53;101247.66;4992409;28;20526;-76
2023/06/29 03:09:04;;;;;;;13.00;4.47;;;;;;;19.20;92.59;101250.47;5001154;28;20440;-76
2023/06/29 03:11:29;;;;;;;10.70;4.55;;;;;;;19.17;92.76;101253.50;5003729;28;20029;-75
2023/06/29 03:13:57;;;;;;;11.05;5.63;;;;;;;19.16;92.57;101241.38;5007262;28;20041;-77
2023/06/29 03:16:22;;;;;;;10.77;4.85;;;;;;;19.15;92.64;101250.28;5005089;28;20145;-76
2023/06/29 03:18:48;;;;;;;11.90;5.07;;;;;;;19.13;92.54;101247.03;5004933;28;20038;-75
2023/06/29 03:21:16;;;;;;;10.43;4.47;;;;;;;19.11;92.17;101246.44;5006640;28;21773;-77
2023/06/29 03:23:42;;;;;;;9.60;5.15;;;;;;;19.11;91.29;101246.44;5004958;28;20594;-76
2023/06/29 03:26:07;;;;;;;18.85;5.57;;;;;;;19.11;91.10;101243.81;5006648;28;20030;-76
2023/06/29 03:28:33;;;;;;;16.25;4.97;;;;;;;19.06;91.46;101239.97;5006508;28;20041;-75
2023/06/29 03:30:58;;;;;;;11.13;5.43;;;;;;;19.04;91.85;101244.63;5007051;28;20041;-77
2023/06/29 03:33:23;;;;;;;9.65;4.63;;;;;;;19.04;91.95;101235.91;5005332;28;20503;-78
2023/06/29 03:35:49;;;;;;;9.40;5.20;;;;;;;19.05;91.97;101238.34;5007088;28;20056;-76
2023/06/29 03:38:17;;;;;;;8.82;4.47;;;;;;;19.06;92.52;101241.75;5012407;28;20037;-77
2023/06/29 03:40:42;;;;;;;8.32;4.68;;;;;;;19.05;92.87;101230.44;5006105;28;20029;-75
2023/06/29 03:43:08;;;;;;;12.93;5.13;;;;;;;19.08;92.58;101234.50;5007189;28;20038;-77
2023/06/29 03:45:33;;;;;;;11.10;4.90;;;;;;;19.10;92.49;101240.38;4992701;28;20035;-76
2023/06/29 03:47:59;;;;;;;10.10;4.80;;;;;;;19.10;92.10;101235.13;5012760;28;20535;-75
2023/06/29 03:50:24;;;;;;;10.80;4.97;;;;;;;19.11;91.85;101236.72;5012562;28;20049;-76
2023/06/29 03:52:50;;;;;;;13.88;5.72;;;;;;;19.13;91.42;101232.06;5006266;28;20462;-76
2023/06/29 03:55:16;;;;;;;11.07;5.15;;;;;;;19.12;91.73;101232.25;5010817;28;20033;-76
2023/06/29 03:57:42;;;;;;;11.13;4.50;;;;;;;19.10;92.15;101229.88;5011830;28;21627;-76
2023/06/29 04:00:08;;;;;;;10.18;4.40;;;;;;;19.12;92.05;101227.00;5006894;28;20042;-76
2023/06/29 04:02:38;;;;;;;12.27;4.93;;;;;;;19.12;92.04;101225.22;5012982;28;20056;-76
2023/06/29 04:05:03;;;;;;;11.60;4.97;;;;;;;19.20;91.40;101224.19;5007902;28;20030;-76
2023/06/29 04:07:29;;;;;;;16.17;5.78;;;;;;;19.19;90.56;101223.41;5009969;28;20515;-75
2023/06/29 04:09:54;;;;;;;11.27;5.63;;;;;;;19.13;91.22;101218.13;5012563;28;20960;-77
2023/06/29 04:12:20;;;;;;;14.00;4.63;;;;;;;19.11;92.14;101215.69;5009462;28;20033;-77
2023/06/29 04:14:46;;;;;;;12.43;5.15;;;;;;;19.11;92.72;101220.94;5026212;28;20033;-76
2023/06/29 04:17:11;;;;;;;10.13;4.68;;;;;;;19.11;93.47;101217.53;5008660;28;20831;-75
2023/06/29 04:19:37;;;;;;;12.38;5.43;;;;;;;19.09;93.84;101220.34;5007551;28;20103;-76
2023/06/29 04:22:02;;;;;;;8.90;4.80;;;;;;;19.09;94.15;101212.47;5012756;28;20030;-76
2023/06/29 04:24:28;;;;;;;9.07;4.72;;;;;;;19.09;94.35;101214.28;5007086;28;20133;-76
2023/06/29 04:26:53;;;;;;;10.23;4.35;;;;;;;19.14;93.76;101212.69;5010818;28;20037;-75
2023/06/29 04:29:19;;;;;;;10.30;4.30;;;;;;;19.11;94.17;101213.06;5018745;28;20050;-76
2023/06/29 04:31:44;;;;;;;10.57;4.53;;;;;;;19.10;94.66;101216.72;5007857;28;22071;-75
2023/06/29 04:34:10;;;;;;;7.93;4.05;;;;;;;19.12;94.70;101219.13;5012960;28;20080;-76
2023/06/29 04:36:35;;;;;;;11.20;4.95;;;;;;;19.14;94.59;101217.13;5006962;28;20029;-76
2023/06/29 04:39:01;;;;;;;8.15;3.72;;;;;;;19.15;94.58;101214.28;5000540;28;20046;-77
2023/06/29 04:41:32;;;;;;;11.35;4.57;;;;;;;19.18;94.29;101215.72;5011258;28;20037;-76
2023/06/29 04:44:01;;;;;;;7.35;4.50;;;;;;;19.20;94.04;101211.84;5017874;28;20069;-76
2023/06/29 04:46:30;;;;;;;11.60;4.50;;;;;;;19.21;94.12;101215.28;5022818;28;20033;-76
2023/06/29 04:48:56;;;;;;;7.00;4.75;;;;;;;19.20;94.40;101214.47;5012579;28;20046;-76
2023/06/29 04:51:21;;;;;;;10.25;4.40;;;;;;;19.20;94.61;101211.84;5005223;28;20040;-76
2023/06/29 04:53:55;;;;;;;10.88;5.10;;;;;;;19.23;94.47;101206.19;4994108;28;20473;-77
2023/06/29 04:56:21;;;;;;;11.40;5.03;;;;;;;19.24;94.69;101209.63;5011723;28;20042;-76
2023/06/29 04:58:46;;;;;;;14.55;5.13;;;;;;;19.25;95.32;101219.16;5011011;28;20045;-75
2023/06/29 05:01:12;;;;;;;9.82;4.75;;;;;;;19.28;95.26;101210.84;5008282;28;20040;-76
2023/06/29 05:03:37;;;;;;;9.32;5.22;;;;;;;19.32;95.49;101201.53;5008679;28;20045;-76
2023/06/29 05:06:03;;;;;;;10.38;5.45;;;;;;;19.33;95.89;101213.66;5009461;28;20033;-75
2023/06/29 05:08:29;;;;;;;11.48;5.75;;;;;;;19.38;95.94;101207.78;5009355;28;20061;-76
2023/06/29 05:10:54;;;;;;;11.38;5.10;;;;;;;19.38;95.68;101210.41;5023679;28;20021;-75
2023/06/29 05:13:20;;;;;;;10.48;5.45;;;;;;;19.41;95.86;101207.38;5008056;28;20037;-77
2023/06/29 05:15:48;;;;;;;11.90;5.55;;;;;;;19.43;95.68;101206.16;5014191;28;20030;-77
2023/06/29 05:18:14;;;;;;;10.43;4.78;;;;;;;19.44;95.35;101201.72;5013042;28;20037;-77
2023/06/29 05:20:40;;;;;;;13.73;5.55;;;;;;;19.47;94.60;101206.56;5010334;28;20388;-77
2023/06/29 05:23:06;;;;;;;10.02;5.35;;;;;;;19.50;94.14;101200.09;5031047;28;20044;-77
2023/06/29 05:25:31;;;;;;;14.48;6.05;;;;;;;19.52;93.34;101201.50;4992249;28;20104;-75
2023/06/29 05:27:57;;;;;;;13.20;6.43;;;;;;;19.55;93.20;101197.66;5021994;28;20039;-75
2023/06/29 05:30:23;;;;;;;9.90;5.28;;;;;;;19.57;92.79;101195.63;5020175;28;20064;-77
2023/06/29 05:32:48;;;;;;;13.38;5.82;;;;;;;19.59;92.66;101202.31;4994542;28;20026;-77
2023/06/29 05:35:14;;;;;;;11.75;5.47;;;;;;;19.60;93.25;101196.00;4995170;28;20049;-77
2023/06/29 05:37:40;;;;;;;9.73;5.47;;;;;;;19.62;94.01;101196.63;4998129;28;20084;-77
2023/06/29 05:40:06;;;;;;;12.68;5.55;;;;;;;19.64;94.33;101202.47;4991295;28;20493;-76
2023/06/29 05:42:32;;;;;;;16.60;5.63;;;;;;;19.65;94.58;101201.47;4990266;28;20041;-75
2023/06/29 05:44:58;;;;;;;13.63;5.57;;;;;;;19.68;94.53;101194.19;5006748;28;20045;-75
2023/06/29 05:47:24;;;;;;;14.52;6.07;;;;;;;19.71;94.51;101202.47;5011513;28;20080;-75
2023/06/29 05:49:49;;;;;;;16.17;7.32;;;;;;;19.72;95.72;101198.00;5005506;28;20045;-77
2023/06/29 05:52:15;;;;;;;10.00;6.47;;;;;;;19.70;96.27;101192.16;5010560;28;20400;-77
2023/06/29 05:54:40;;;;;;;15.63;6.80;;;;;;;19.70;96.93;101198.22;4990790;28;20048;-77
2023/06/29 05:57:06;;;;;;;12.55;6.28;;;;;;;19.73;97.00;101197.03;4993308;28;20026;-76
2023/06/29 05:59:31;;;;;;;11.40;6.93;;;;;;;19.76;96.47;101193.97;5006635;28;20108;-77
2023/06/29 06:01:56;;;;;;;11.27;6.25;;;;;;;19.82;96.44;101193.16;4998384;28;20037;-77
2023/06/29 06:04:22;;;;;;;12.55;7.32;;;;;;;19.90;96.03;101194.75;4996842;28;20047;-77
2023/06/29 06:06:48;;;;;;;12.68;6.95;;;;;;;19.96;96.01;101201.81;4996589;28;20034;-76
2023/06/29 06:09:13;;;;;;;13.27;7.05;;;;;;;19.98;96.35;101197.16;4996755;28;20091;-76
2023/06/29 06:11:38;;;;;;;20.30;8.02;;;;;;;20.05;97.06;101197.13;5009805;28;20041;-76
2023/06/29 06:14:04;;;;;;;19.08;8.05;;;;;;;20.05;97.88;101199.75;5002507;28;20053;-77
2023/06/29 06:16:29;;;;;;;13.77;6.85;;;;;;;20.05;98.17;101199.75;5006034;28;20497;-77
2023/06/29 06:18:55;;;;;;;15.88;7.30;;;;;;;20.07;98.11;101195.09;5008578;28;20095;-76
2023/06/29 06:21:20;;;;;;;21.33;8.18;;;;;;;20.09;98.22;101198.31;5006571;28;20033;-77
2023/06/29 06:23:46;;;;;;;18.10;7.30;;;;;;;20.13;97.67;101197.69;5010785;28;20448;-76
2023/06/29 06:26:12;;;;;;;18.08;7.88;;;;;;;20.18;96.77;101204.97;4997879;28;20421;-77
2023/06/29 06:28:37;;;;;;;16.05;8.27;;;;;;;20.25;95.96;101194.38;4991031;28;20041;-77
2023/06/29 06:31:02;;;;;;;15.88;8.55;;;;;;;20.29;95.59;101196.41;5009234;28;20041;-77
2023/06/29 06:33:30;;;;;;;19.65;8.48;;;;;;;20.38;94.44;101189.03;5005228;28;20497;-77
2023/06/29 06:35:56;;;;;;;14.52;8.27;;;;;;;20.43;93.96;101192.66;4996484;28;20025;-76
2023/06/29 06:38:21;;;;;;;17.10;8.98;;;;;;;20.51;93.29;101191.63;5011818;28;20041;-77
2023/06/29 06:40:47;;;;;;;15.68;8.63;;;;;;;20.59;92.74;101194.00;5002123;28;20030;-77
2023/06/29 06:43:16;;;;;;;15.73;8.88;;;;;;;20.67;92.56;101195.59;5005869;28;20033;-77
2023/06/29 06:45:41;;;;;;;25.75;11.73;;;;;;;20.75;91.32;101192.69;5003129;28;20030;-77
2023/06/29 06:48:07;;;;;;;22.55;10.25;;;;;;;20.76;90.91;101191.69;5004296;28;20148;-77
2023/06/29 06:50:32;;;;;;;23.33;11.75;;;;;;;20.79;90.85;101190.44;5008326;28;20050;-77
2023/06/29 06:52:58;;;;;;;23.13;11.23;;;;;;;20.76;89.62;101196.94;5004335;28;20065;-77
2023/06/29 06:55:23;;;;;;;21.40;11.18;;;;;;;20.76;89.46;101188.25;5007582;28;20050;-75
2023/06/29 06:57:48;;;;;;;17.35;10.35;;;;;;;20.74;89.95;101190.28;5011685;28;20034;-76
2023/06/29 07:00:14;;;;;;;17.60;10.05;;;;;;;20.73;90.86;101188.66;5010154;28;20044;-79
2023/06/29 07:02:40;;;;;;;20.05;11.25;;;;;;;20.71;90.93;101188.06;5024384;28;20026;-74
2023/06/29 07:05:06;;;;;;;18.80;10.75;;;;;;;20.70;90.90;101186.44;5007056;28;20117;-77
2023/06/29 07:07:31;;;;;;;20.38;10.57;;;;;;;20.70;90.79;101187.28;5015451;28;20034;-77
2023/06/29 07:09:57;;;;;;;20.17;11.88;;;;;;;20.70;91.06;101192.53;4993067;28;20080;-77
2023/06/29 07:12:22;;;;;;;20.52;12.35;;;;;;;20.71;91.16;101186.22;5006947;28;20117;-76
2023/06/29 07:14:49;;;;;;;22.38;12.23;;;;;;;20.72;91.36;101187.88;4997119;28;20764;-75
2023/06/29 07:17:14;;;;;;;19.98;11.00;;;;;;;20.73;91.05;101181.56;5015972;28;20163;-77
2023/06/29 07:19:40;;;;;;;20.13;11.15;;;;;;;20.73;90.69;101186.81;5014228;28;20124;-77
2023/06/29 07:22:05;;;;;;;25.63;11.55;;;;;;;20.75;90.42;101181.34;5001385;28;20026;-75
2023/06/29 07:24:30;;;;;;;18.85;10.98;;;;;;;20.77;90.18;101181.94;5009939;28;20493;-75
2023/06/29 07:26:56;;;;;;;24.67;12.50;;;;;;;20.78;90.20;101189.63;4998897;28;20026;-77
2023/06/29 07:29:21;;;;;;;20.05;10.93;;;;;;;20.82;90.04;101181.31;4998101;28;20497;-77
2023/06/29 07:31:47;;;;;;;24.45;12.93;;;;;;;20.85;89.59;101186.13;5019084;28;20500;-77
2023/06/29 07:34:12;;;;;;;20.60;12.27;;;;;;;20.87;89.85;101184.09;5008495;28;20050;-77
2023/06/29 07:36:39;;;;;;;22.20;11.02;;;;;;;20.87;90.28;101179.66;5006225;28;20490;-77
2023/06/29 07:39:04;;;;;;;22.25;12.10;;;;;;;20.90;89.54;101179.19;4997556;28;20462;-77
2023/06/29 07:41:31;;;;;;;17.80;11.55;;;;;;;20.94;89.55;101175.09;5011360;28;20030;-77
2023/06/29 07:43:57;;;;;;;24.15;10.95;;;;;;;20.97;89.36;101182.59;4996806;28;20037;-77
2023/06/29 07:46:23;;;;;;;19.00;10.82;;;;;;;21.00;89.44;101182.16;5016470;28;20441;-75
2023/06/29 07:48:49;;;;;;;27.23;13.57;;;;;;;21.02;88.24;101178.50;5017013;28;20061;-77
2023/06/29 07:51:16;;;;;;;23.38;12.65;;;;;;;20.99;87.87;101180.53;4999284;28;20045;-77
2023/06/29 07:53:42;;;;;;;23.08;11.90;;;;;;;21.01;88.81;101180.34;4999672;28;20107;-78
2023/06/29 07:56:08;;;;;;;23.02;11.35;;;;;;;21.04;89.31;101187.00;5000306;28;20515;-77
2023/06/29 07:58:34;;;;;;;22.15;11.57;;;;;;;21.07;89.76;101178.66;5013231;28;20255;-77
2023/06/29 08:00:59;;;;;;;23.52;12.88;;;;;;;21.11;89.30;101179.84;5011022;28;20835;-77
2023/06/29 08:03:25;;;;;;;21.58;11.00;;;;;;;21.13;89.88;101181.22;5009105;28;20050;-78
2023/06/29 08:05:52;;;;;;;20.38;12.02;;;;;;;21.17;90.02;101176.31;5011170;28;20073;-78
2023/06/29 08:08:18;;;;;;;22.92;12.57;;;;;;;21.19;89.62;101175.09;5014384;28;20045;-76
2023/06/29 08:10:43;;;;;;;25.40;12.90;;;;;;;21.20;89.10;101173.25;5015747;28;20096;-77
2023/06/29 08:13:09;;;;;;;21.75;12.32;;;;;;;21.19;88.80;101172.47;5011901;28;20041;-77
2023/06/29 08:15:34;;;;;;;22.75;12.02;;;;;;;21.24;88.08;101171.81;5014732;28;20041;-77
2023/06/29 08:18:00;;;;;;;25.48;12.85;;;;;;;21.33;86.73;101170.50;5016381;28;20026;-77
2023/06/29 08:20:25;;;;;;;25.23;12.95;;;;;;;21.38;86.78;101173.28;5014023;28;20045;-77
2023/06/29 08:22:52;;;;;;;28.65;14.43;;;;;;;21.48;87.65;101170.16;5015823;28;20040;-77
2023/06/29 08:25:18;;;;;;;23.27;12.98;;;;;;;21.53;87.21;101165.06;5008389;28;20037;-76
2023/06/29 08:27:44;;;;;;;24.52;13.18;;;;;;;21.64;86.45;101166.13;5012798;28;20168;-77
2023/06/29 08:30:10;;;;;;;23.83;13.02;;;;;;;21.74;86.55;101168.28;5006801;28;20139;-77
2023/06/29 08:32:35;;;;;;;24.17;12.70;;;;;;;21.85;87.21;101167.53;5010213;28;20025;-77
2023/06/29 08:35:01;;;;;;;26.27;12.77;;;;;;;22.00;86.18;101167.13;5004101;28;20557;-77
2023/06/29 08:37:28;;;;;;;26.15;12.48;;;;;;;22.19;84.10;101165.25;4997293;28;20443;-79
2023/06/29 08:39:54;;;;;;;25.20;13.25;;;;;;;22.44;82.33;101167.78;5010508;28;20129;-78
2023/06/29 08:42:20;;;;;;;26.20;13.35;;;;;;;22.63;81.04;101154.47;4997247;28;20037;-76
2023/06/29 08:44:46;;;;;;;27.55;14.07;;;;;;;22.89;80.49;101155.91;5016267;28;20485;-77
2023/06/29 08:47:12;;;;;;;23.23;12.30;;;;;;;23.10;79.18;101157.97;5006208;28;20046;-77
2023/06/29 08:49:39;;;;;;;22.77;13.13;;;;;;;23.29;78.48;101157.84;5011243;28;20057;-72
2023/06/29 08:52:06;;;;;;;27.50;13.48;;;;;;;23.32;76.29;101152.13;5008114;28;20030;-76
2023/06/29 08:54:32;;;;;;;27.60;12.85;;;;;;;23.38;75.95;101145.88;5009539;28;20150;-74
2023/06/29 08:57:01;;;;;;;25.17;13.65;;;;;;;23.49;73.70;101147.69;5010719;28;20477;-77
2023/06/29 08:59:28;;;;;;;22.73;12.27;;;;;;;23.61;74.26;101141.56;5006218;28;20042;-78
2023/06/29 09:01:56;;;;;;;25.33;14.20;;;;;;;23.69;74.45;101149.13;5009609;28;20041;-76
2023/06/29 09:04:22;;;;;;;25.92;12.85;;;;;;;23.74;73.93;101146.59;4993976;28;20091;-78
2023/06/29 09:06:47;;;;;;;22.20;12.68;;;;;;;23.85;75.11;101142.34;5006216;28;20038;-77
2023/06/29 09:09:14;;;;;;;28.55;13.80;;;;;;;24.16;76.13;101142.88;5003427;28;20049;-73
2023/06/29 09:11:40;;;;;;;27.27;13.27;;;;;;;24.44;72.54;101145.47;4992192;28;20056;-77
2023/06/29 09:14:07;;;;;;;23.55;12.95;;;;;;;24.58;71.72;101139.88;4994162;28;20050;-76
2023/06/29 09:16:36;;;;;;;23.52;13.05;;;;;;;24.80;72.01;101142.63;4990956;28;20061;-76
2023/06/29 09:19:05;;;;;;;24.38;13.50;;;;;;;24.89;71.53;101141.16;5008236;28;20119;-75
2023/06/29 09:21:31;;;;;;;25.85;13.85;;;;;;;25.08;70.49;101133.72;5000736;28;20096;-75
2023/06/29 09:24:00;;;;;;;23.48;13.38;;;;;;;25.22;67.88;101132.34;5006035;28;20077;-76
2023/06/29 09:26:29;;;;;;;25.05;13.18;;;;;;;25.11;69.46;101138.56;5007664;28;20030;-76
2023/06/29 09:29:03;;;;;;;22.77;13.43;;;;;;;25.19;67.94;101132.81;5009213;28;20040;-77
2023/06/29 09:31:32;;;;;;;25.70;12.88;;;;;;;25.09;68.74;101122.09;5009084;28;20062;-77
2023/06/29 09:34:18;;;;;;;22.98;13.20;;;;;;;24.88;71.04;101118.31;5004154;28;20096;-75
2023/06/29 09:36:44;;;;;;;30.80;13.52;;;;;;;24.84;71.33;101133.13;5002169;28;20084;-76
2023/06/29 09:39:10;;;;;;;22.88;13.38;;;;;;;24.60;73.15;101130.66;4990826;28;20062;-76
2023/06/29 09:41:49;;;;;;;28.17;14.10;;;;;;;24.41;71.71;101127.44;5010521;28;20080;-75
2023/06/29 09:44:21;;;;;;;27.58;14.98;;;;;;;24.34;72.09;101129.44;5006067;28;20585;-77
2023/06/29 09:46:53;;;;;;;33.10;16.33;;;;;;;24.01;74.27;101130.16;5009106;28;20030;-76
2023/06/29 09:49:19;;;;;;;25.27;14.38;;;;;;;23.92;72.89;101129.75;5008890;28;20034;-77
2023/06/29 09:51:45;;;;;;;23.80;14.35;;;;;;;23.79;74.37;101127.38;5007951;28;20033;-77
2023/06/29 09:54:14;;;;;;;23.00;12.65;;;;;;;23.78;74.96;101128.41;4992364;28;20037;-78
2023/06/29 09:56:41;;;;;;;27.80;15.18;;;;;;;23.85;74.97;101126.44;5012511;28;20037;-77
2023/06/29 09:59:10;;;;;;;29.65;15.68;;;;;;;23.80;74.40;101124.50;4987146;28;20042;-77
2023/06/29 10:01:37;;;;;;;24.55;13.13;;;;;;;23.81;73.97;101126.13;5011792;28;20029;-78
2023/06/29 10:04:04;;;;;;;27.75;15.20;;;;;;;23.85;74.36;101127.25;5008839;28;20108;-76
2023/06/29 10:06:59;;;;;;;29.13;14.35;;;;;;;23.83;72.90;101120.59;4992624;28;20030;-77
2023/06/29 10:09:25;;;;;;;24.73;14.98;;;;;;;23.76;74.11;101123.34;5008222;28;20049;-77
2023/06/29 10:11:55;;;;;;;27.00;15.13;;;;;;;23.85;73.51;101121.16;5010337;28;20370;-75
2023/06/29 10:14:22;;;;;;;27.70;15.18;;;;;;;23.70;72.54;101124.28;5007955;28;20048;-77
2023/06/29 10:16:50;;;;;;;23.70;13.50;;;;;;;23.55;73.44;101124.00;5003860;28;20049;-77
2023/06/29 10:19:23;;;;;;;27.83;14.60;;;;;;;23.47;74.23;101127.78;4991479;28;20045;-76
2023/06/29 10:21:54;;;;;;;;;;;;;;;23.47;74.62;101125.13;5013303;28;20547;-76
2023/06/29 10:24:25;;;;;;;23.92;14.05;;;;;;;23.47;74.85;101127.78;5007957;28;19948;-77
2023/06/29 10:26:52;;;;;;;25.05;14.75;;;;;;;23.61;74.59;101129.13;5008641;28;20034;-77
2023/06/29 10:29:17;;;;;;;28.85;15.82;;;;;;;23.60;74.74;101129.38;5011711;28;20127;-76
2023/06/29 10:31:48;;;;;;;28.80;16.00;;;;;;;23.70;75.38;101125.09;5009996;28;20500;-75
2023/06/29 10:34:14;;;;;;;23.83;14.40;;;;;;;23.70;75.32;101126.94;5008274;28;20157;-77
2023/06/29 10:36:49;;;;;;;31.92;16.02;;;;;;;23.73;75.99;101125.66;5009677;28;20049;-77
2023/06/29 10:39:42;;;;;;;21.80;13.43;;;;;;;23.70;76.49;101124.28;5004499;28;20042;-77
2023/06/29 10:42:12;;;;;;;25.25;15.35;;;;;;;23.65;77.34;101116.25;4991124;28;20366;-76
2023/06/29 10:44:38;;;;;;;27.75;14.27;;;;;;;23.63;77.65;101124.41;5022156;28;20057;-77
2023/06/29 10:47:03;;;;;;;28.67;15.95;;;;;;;23.60;77.58;101119.59;4998160;28;20041;-76
2023/06/29 10:49:29;;;;;;;27.13;14.90;;;;;;;23.50;78.02;101122.03;5007713;28;20038;-75
2023/06/29 10:52:05;;;;;;;26.55;14.85;;;;;;;23.46;78.49;101118.25;4992631;28;20026;-78
2023/06/29 10:54:31;;;;;;;25.40;14.75;;;;;;;23.42;78.46;101117.13;5007966;28;20069;-76
2023/06/29 10:57:07;;;;;;;31.65;15.52;;;;;;;23.46;78.00;101113.75;5004149;28;20041;-77
2023/06/29 10:59:34;;;;;;;28.75;15.65;;;;;;;23.43;77.58;101111.59;4989504;28;20715;-77
2023/06/29 11:02:00;;;;;;;26.58;15.65;;;;;;;23.48;77.29;101113.53;5009437;28;20137;-75
2023/06/29 11:04:27;;;;;;;23.27;14.35;;;;;;;23.55;77.57;101110.78;5008128;28;20042;-78
2023/06/29 11:06:53;;;;;;;35.72;17.38;;;;;;;23.60;77.80;101109.03;5012975;28;20042;-76
2023/06/29 11:09:19;;;;;;;30.67;16.83;;;;;;;23.64;77.43;101106.69;4988682;28;20052;-76
2023/06/29 11:11:47;;;;;;;26.67;16.25;;;;;;;23.74;76.18;101103.44;5007976;28;20022;-76